Time;durP1;ratioP1;P1;durP2;ratioP2;P2;SDS_P1;SDS_P2;PMS_P1;PMS_P2;Temp;Humidity;BMP_temperature;BMP_pressure;BME280_temperature;BME280_humidity;BME280_pressure;Samples;Min_cycle;Max_cycle;Signal;HPM_P1;HPM_P2
2023/01/13 00:00:02;;;;;;;57.80;25.30;;;;;;;-4.25;74.08;101122.16;107829;1254;60467;-70
2023/01/13 00:02:37;;;;;;;52.60;23.00;;;;;;;-4.25;74.14;101121.48;105907;1252;65275;-75
2023/01/13 00:05:05;;;;;;;37.10;17.30;;;;;;;-4.25;74.17;101120.79;106062;1257;60552;-71
2023/01/13 00:07:32;;;;;;;32.00;15.90;;;;;;;-4.23;74.14;101117.86;105980;1251;60585;-70
2023/01/13 00:09:59;;;;;;;34.30;14.80;;;;;;;-4.21;74.18;101120.08;105889;1257;67643;-71
2023/01/13 00:12:26;;;;;;;29.60;13.80;;;;;;;-4.20;74.15;101120.42;105787;1251;60945;-69
2023/01/13 00:14:53;;;;;;;31.70;14.70;;;;;;;-4.21;74.15;101121.63;105647;1257;66393;-70
2023/01/13 00:17:21;;;;;;;34.60;15.40;;;;;;;-4.21;74.15;101117.67;105945;1252;61261;-70
2023/01/13 00:19:48;;;;;;;51.80;20.10;;;;;;;-4.20;74.18;101118.87;105963;1256;60456;-70
2023/01/13 00:22:15;;;;;;;47.70;17.50;;;;;;;-4.20;74.24;101116.11;105932;1257;66645;-69
2023/01/13 00:24:42;;;;;;;43.70;17.70;;;;;;;-4.20;74.24;101116.63;105843;1252;60919;-70
2023/01/13 00:27:09;;;;;;;73.90;25.50;;;;;;;-4.20;74.27;101114.23;105636;1257;66452;-70
2023/01/13 00:29:36;;;;;;;79.30;27.80;;;;;;;-4.20;74.23;101116.29;106012;1250;60543;-69
2023/01/13 00:32:03;;;;;;;87.30;32.70;;;;;;;-4.20;74.20;101116.98;105867;1251;60435;-70
2023/01/13 00:34:30;;;;;;;86.40;31.70;;;;;;;-4.20;74.21;101117.14;105879;1254;67739;-70
2023/01/13 00:36:57;;;;;;;80.90;30.10;;;;;;;-4.21;74.15;101116.81;105752;1251;60898;-70
2023/01/13 00:39:24;;;;;;;65.70;28.50;;;;;;;-4.24;74.14;101117.02;105961;1254;66401;-70
2023/01/13 00:44:37;;;;;;;62.80;27.20;;;;;;;-4.28;74.16;101115.14;105889;1257;60383;-71
2023/01/13 00:47:04;;;;;;;91.70;33.50;;;;;;;-4.29;74.22;101114.98;105971;1254;67351;-71
2023/01/13 00:49:31;;;;;;;83.50;32.30;;;;;;;-4.32;74.16;101117.74;105798;1251;60906;-71
2023/01/13 00:51:58;;;;;;;94.20;32.40;;;;;;;-4.32;74.24;101120.50;105861;1251;66446;-71
2023/01/13 00:54:25;;;;;;;88.40;30.70;;;;;;;-4.31;74.26;101119.80;105704;1251;60558;-70
2023/01/13 00:56:52;;;;;;;106.80;33.30;;;;;;;-4.31;74.28;101112.23;105879;1251;60396;-71
2023/01/13 00:59:19;;;;;;;120.80;35.70;;;;;;;-4.34;74.21;101106.74;105814;1252;67678;-70
2023/01/13 01:01:46;;;;;;;139.10;39.70;;;;;;;-4.36;74.33;101104.86;105719;1254;60892;-71
2023/01/13 01:04:13;;;;;;;120.00;36.10;;;;;;;-4.35;74.37;101104.34;105757;1254;66324;-70
2023/01/13 01:06:40;;;;;;;105.90;34.80;;;;;;;-4.35;74.40;101102.63;105922;1256;60368;-70
2023/01/13 01:09:07;;;;;;;126.50;39.90;;;;;;;-4.35;74.41;101101.95;105859;1251;60467;-70
2023/01/13 01:11:34;;;;;;;157.90;48.90;;;;;;;-4.33;74.49;101100.21;105941;1251;67859;-71
2023/01/13 01:14:02;;;;;;;163.40;51.80;;;;;;;-4.32;74.59;101100.55;106018;1251;61274;-71
2023/01/13 01:16:30;;;;;;;135.10;40.80;;;;;;;-4.31;74.53;101104.33;105930;1254;66419;-71
2023/01/13 01:18:58;;;;;;;96.20;33.40;;;;;;;-4.32;74.47;101102.11;105712;1257;60488;-70
2023/01/13 01:21:25;;;;;;;83.30;32.90;;;;;;;-4.33;74.53;101100.05;105824;1257;60364;-71
2023/01/13 01:23:53;;;;;;;91.10;34.30;;;;;;;-4.33;74.60;101095.41;105899;1252;67634;-70
2023/01/13 01:26:24;;;;;;;109.00;39.20;;;;;;;-4.33;74.60;101089.39;105728;1251;60585;-70
2023/01/13 01:28:51;;;;;;;185.60;50.70;;;;;;;-4.32;74.52;101089.05;105791;1251;65175;-71
2023/01/13 01:31:26;;;;;;;158.70;45.00;;;;;;;-4.33;74.54;101086.13;105776;1251;64747;-71
2023/01/13 01:33:53;;;;;;;155.50;45.40;;;;;;;-4.34;74.60;101081.66;105955;1251;60543;-71
2023/01/13 01:36:21;;;;;;;126.50;36.30;;;;;;;-4.34;74.65;101079.95;106037;1254;67660;-71
2023/01/13 01:38:48;;;;;;;162.80;41.80;;;;;;;-4.34;74.68;101077.17;105634;1253;60557;-70
2023/01/13 01:41:20;;;;;;;261.90;59.40;;;;;;;-4.32;74.68;101076.66;105647;1254;65458;-70
2023/01/13 01:44:05;;;;;;;251.20;60.00;;;;;;;-4.35;74.71;101069.97;105837;1256;61219;-71
2023/01/13 01:46:42;;;;;;;290.70;66.70;;;;;;;-4.36;74.70;101071.69;106018;1251;60473;-71
2023/01/13 01:49:14;;;;;;;285.80;68.60;;;;;;;-4.36;74.71;101076.67;105905;1256;67671;-71
2023/01/13 01:51:47;;;;;;;299.60;73.00;;;;;;;-4.39;74.80;101072.74;105994;1252;60922;-71
2023/01/13 01:54:40;;;;;;;253.30;66.20;;;;;;;-4.40;74.86;101070.70;105932;1251;66186;-71
2023/01/13 01:57:07;;;;;;;207.90;54.50;;;;;;;-4.41;74.79;101070.70;105334;1251;60461;-71
2023/01/13 01:59:34;;;;;;;179.60;46.80;;;;;;;-4.41;74.81;101064.70;105878;1257;60405;-71
2023/01/13 02:02:05;;;;;;;116.50;37.20;;;;;;;-4.41;74.91;101063.48;105804;1251;67743;-71
2023/01/13 02:04:39;;;;;;;111.50;36.20;;;;;;;-4.42;74.93;101060.41;105723;1251;61219;-71
2023/01/13 02:07:06;;;;;;;191.40;46.30;;;;;;;-4.43;75.00;101055.09;105770;1252;65364;-72
2023/01/13 02:09:33;;;;;;;154.50;40.10;;;;;;;-4.42;75.02;101058.00;105942;1251;60586;-71
2023/01/13 02:14:45;;;;;;;163.10;40.80;;;;;;;-4.45;74.97;101059.20;105927;1252;67661;-71
2023/01/13 02:17:25;;;;;;;136.90;35.20;;;;;;;-4.50;74.95;101063.38;105836;1251;60849;-71
2023/01/13 02:20:13;;;;;;;165.60;40.30;;;;;;;-4.54;75.05;101068.55;105981;1254;66520;-71
2023/01/13 02:26:20;;;;;;;314.20;70.10;;;;;;;-4.57;75.12;101068.91;105603;1254;60453;-71
2023/01/13 02:32:21;;;;;;;175.40;44.40;;;;;;;-4.66;75.17;101066.55;105679;1252;60863;-71
2023/01/13 02:34:54;;;;;;;105.80;33.70;;;;;;;-4.70;75.21;101068.14;105720;1257;66777;-71
2023/01/13 02:37:27;;;;;;;69.40;22.40;;;;;;;-4.71;75.26;101064.55;105826;1251;60391;-71
2023/01/13 02:39:58;;;;;;;48.20;18.10;;;;;;;-4.69;75.31;101066.24;105854;1257;60469;-72
2023/01/13 02:45:41;;;;;;;65.60;20.50;;;;;;;-4.69;75.43;101068.65;105751;1254;61213;-74
2023/01/13 02:48:08;;;;;;;86.40;23.20;;;;;;;-4.67;75.63;101068.29;105683;1258;74789;-69
2023/01/13 02:50:39;;;;;;;45.70;17.50;;;;;;;-4.64;75.59;101062.08;105449;1254;60533;-69
2023/01/13 02:53:36;;;;;;;24.20;11.30;;;;;;;-4.64;75.59;101054.86;105802;1253;60542;-69
2023/01/13 02:56:04;;;;;;;15.90;10.80;;;;;;;-4.68;75.46;101057.48;105544;1253;67380;-69
2023/01/13 02:58:31;;;;;;;16.60;9.60;;;;;;;-4.71;75.51;101065.92;105780;1260;60476;-70
2023/01/13 03:00:58;;;;;;;17.60;10.00;;;;;;;-4.71;75.54;101068.33;105691;1254;66124;-69
2023/01/13 03:03:25;;;;;;;17.30;10.60;;;;;;;-4.74;75.52;101067.80;105684;1254;60516;-70
2023/01/13 03:05:55;;;;;;;15.80;10.20;;;;;;;-4.75;75.49;101068.16;105884;1254;60456;-70
2023/01/13 03:08:42;;;;;;;14.20;9.70;;;;;;;-4.73;75.59;101068.50;105706;1254;66428;-70
2023/01/13 03:11:10;;;;;;;150.10;34.60;;;;;;;-4.71;75.68;101072.97;105517;1257;135889;-69
2023/01/13 03:13:56;;;;;;;170.00;38.70;;;;;;;-4.70;75.70;101071.92;105650;1260;66367;-70
2023/01/13 03:16:29;;;;;;;119.50;28.40;;;;;;;-4.68;75.69;101075.34;105785;1252;60501;-69
2023/01/13 03:19:36;;;;;;;78.40;22.10;;;;;;;-4.66;75.66;101076.01;105703;1257;60534;-70
2023/01/13 03:22:25;;;;;;;50.50;16.40;;;;;;;-4.69;75.65;101074.84;105599;1257;67818;-70
2023/01/13 03:25:04;;;;;;;41.90;15.20;;;;;;;-4.71;75.61;101072.45;105785;1254;60928;-70
2023/01/13 03:27:33;;;;;;;35.50;14.70;;;;;;;-4.74;75.65;101075.02;105545;1254;66614;-70
2023/01/13 03:30:06;;;;;;;28.20;13.40;;;;;;;-4.75;75.62;101070.05;105545;1257;60506;-70
2023/01/13 03:32:39;;;;;;;28.80;13.60;;;;;;;-4.76;75.57;101066.45;105799;1254;60543;-69
2023/01/13 03:35:10;;;;;;;50.10;16.80;;;;;;;-4.79;75.59;101060.80;105596;1257;67348;-70
2023/01/13 03:37:39;;;;;;;40.60;15.30;;;;;;;-4.79;75.58;101061.85;105757;1257;60341;-70
2023/01/13 03:40:13;;;;;;;50.90;18.30;;;;;;;-4.79;75.65;101062.52;105653;1254;66574;-70
2023/01/13 03:42:40;;;;;;;;;;;;;;;-4.77;75.68;101066.80;105449;1254;60497;-70
2023/01/13 03:45:15;;;;;;;33.60;13.20;;;;;;;-4.75;75.68;101068.84;105881;1251;60511;-71
2023/01/13 03:47:48;;;;;;;30.80;14.40;;;;;;;-4.73;75.59;101070.21;105974;1256;67633;-71
2023/01/13 03:50:21;;;;;;;20.80;11.00;;;;;;;-4.73;75.45;101064.02;105920;1254;60564;-70
2023/01/13 03:52:50;;;;;;;16.20;9.90;;;;;;;-4.74;75.61;101063.50;105976;1253;66910;-70
2023/01/13 03:55:23;;;;;;;19.90;10.50;;;;;;;-4.74;75.53;101063.17;106453;1254;60784;-70
2023/01/13 03:57:54;;;;;;;59.70;19.00;;;;;;;-4.75;75.54;101062.66;108645;1250;60316;-71
2023/01/13 04:00:23;;;;;;;73.10;21.50;;;;;;;-4.75;75.49;101061.28;108066;1253;66564;-71
2023/01/13 04:03:12;;;;;;;178.90;44.00;;;;;;;-4.75;75.42;101060.09;105869;1256;60344;-71
2023/01/13 04:05:42;;;;;;;75.60;22.20;;;;;;;-4.74;75.40;101058.70;105990;1251;67567;-73
2023/01/13 04:08:24;;;;;;;55.90;18.50;;;;;;;-4.73;75.37;101054.41;106019;1251;60500;-70
2023/01/13 04:11:03;;;;;;;43.70;15.70;;;;;;;-4.73;75.40;101058.71;105824;1251;60905;-71
2023/01/13 04:13:32;;;;;;;45.80;16.60;;;;;;;-4.73;75.29;101053.57;105906;1250;66628;-69
2023/01/13 04:15:59;;;;;;;34.50;14.30;;;;;;;-4.72;75.28;101054.41;105991;1251;60805;-69
2023/01/13 04:18:27;;;;;;;34.50;14.00;;;;;;;-4.71;75.29;101054.23;105820;1256;65314;-69
2023/01/13 04:20:56;;;;;;;32.80;14.60;;;;;;;-4.71;75.29;101054.76;105945;1253;60487;-71
2023/01/13 04:23:24;;;;;;;51.90;18.10;;;;;;;-4.71;75.22;101058.02;105827;1251;60469;-71
2023/01/13 04:25:50;;;;;;;91.40;24.80;;;;;;;-4.72;75.16;101057.84;106007;1256;67359;-71
2023/01/13 04:28:18;;;;;;;105.50;30.80;;;;;;;-4.76;75.17;101055.80;105776;1251;60639;-69
2023/01/13 04:30:45;;;;;;;111.00;31.00;;;;;;;-4.79;75.08;101053.77;105904;1253;65435;-71
2023/01/13 04:33:12;;;;;;;80.00;25.00;;;;;;;-4.79;75.01;101050.67;105811;1257;60586;-71
2023/01/13 04:35:39;;;;;;;66.40;22.40;;;;;;;-4.79;75.05;101054.45;106030;1251;60516;-71
2023/01/13 04:38:10;;;;;;;69.60;23.50;;;;;;;-4.80;75.03;101058.06;105988;1251;67810;-71
2023/01/13 04:40:38;;;;;;;57.50;19.00;;;;;;;-4.79;74.93;101059.78;105926;1250;60793;-69
2023/01/13 04:43:05;;;;;;;63.50;19.70;;;;;;;-4.77;75.07;101062.33;105950;1254;66192;-69
2023/01/13 04:45:32;;;;;;;56.40;18.70;;;;;;;-4.77;75.00;101057.52;105667;1251;64152;-69
2023/01/13 04:47:59;;;;;;;68.60;19.50;;;;;;;-4.78;74.98;101063.55;105793;1251;60947;-70
2023/01/13 04:50:26;;;;;;;66.80;19.00;;;;;;;-4.82;74.86;101067.52;105893;1256;67649;-70
2023/01/13 04:52:53;;;;;;;56.00;18.20;;;;;;;-4.88;74.87;101070.98;105656;1257;60331;-70
2023/01/13 04:55:20;;;;;;;35.50;14.40;;;;;;;-4.91;74.84;101069.12;105932;1249;66454;-69
2023/01/13 04:57:47;;;;;;;76.70;22.00;;;;;;;-4.93;74.80;101070.83;105854;1250;60432;-69
2023/01/13 05:00:16;;;;;;;46.50;15.80;;;;;;;-4.94;74.77;101072.71;105919;1251;60460;-70
2023/01/13 05:02:43;;;;;;;33.90;13.90;;;;;;;-4.95;74.70;101069.30;105909;1251;68043;-69
2023/01/13 05:05:10;;;;;;;42.20;15.70;;;;;;;-4.98;74.74;101070.70;105582;1251;60973;-70
2023/01/13 05:07:37;;;;;;;67.00;20.70;;;;;;;-4.99;74.91;101071.23;105893;1251;66567;-70
2023/01/13 05:10:04;;;;;;;86.60;26.30;;;;;;;-4.98;74.89;101074.30;105944;1257;60638;-70
2023/01/13 05:18:02;;;;;;;36.10;14.10;;;;;;;-4.93;74.83;101075.65;105670;1252;60879;-70
2023/01/13 05:20:29;;;;;;;21.10;11.50;;;;;;;-4.92;74.85;101076.69;105639;1251;66659;-70
2023/01/13 05:25:45;;;;;;;20.00;10.20;;;;;;;-4.85;75.00;101077.84;105906;1250;60455;-70
2023/01/13 05:28:11;;;;;;;16.90;9.10;;;;;;;-4.82;75.01;101075.42;105984;1250;67662;-70
2023/01/13 05:30:41;;;;;;;14.60;9.30;;;;;;;-4.82;74.91;101076.80;105973;1254;60380;-70
2023/01/13 05:33:09;;;;;;;12.90;9.90;;;;;;;-4.82;74.92;101080.23;106019;1257;66763;-69
2023/01/13 05:35:43;;;;;;;14.80;10.00;;;;;;;-4.81;74.88;101083.16;106013;1249;60817;-69
2023/01/13 05:38:11;;;;;;;13.20;8.90;;;;;;;-4.79;74.82;101086.75;105841;1257;60522;-68
2023/01/13 05:43:25;;;;;;;23.90;11.50;;;;;;;-4.82;74.68;101084.54;105934;1251;61250;-69
2023/01/13 05:45:52;;;;;;;175.50;39.20;;;;;;;-4.86;74.57;101080.59;105748;1251;66721;-69
2023/01/13 05:48:20;;;;;;;102.60;26.60;;;;;;;-4.90;74.49;101081.14;105995;1254;60451;-69
2023/01/13 05:50:48;;;;;;;88.80;25.30;;;;;;;-4.92;74.54;101082.52;105847;1251;60525;-69
2023/01/13 05:53:16;;;;;;;63.90;20.00;;;;;;;-4.94;74.48;101085.79;105879;1251;67804;-75
2023/01/13 05:55:43;;;;;;;36.70;15.40;;;;;;;-4.95;74.54;101088.54;105889;1251;61004;-74
2023/01/13 05:58:12;;;;;;;20.90;12.10;;;;;;;-4.93;74.62;101089.39;105943;1251;66206;-71
2023/01/13 06:00:38;;;;;;;21.00;11.80;;;;;;;-4.89;74.77;101089.20;106028;1251;60501;-71
2023/01/13 06:03:08;;;;;;;16.30;10.50;;;;;;;-4.85;74.70;101088.66;105900;1252;60415;-75
2023/01/13 06:05:35;;;;;;;13.60;10.30;;;;;;;-4.83;74.76;101088.47;106042;1251;66998;-71
2023/01/13 06:08:02;;;;;;;13.40;10.20;;;;;;;-4.80;74.65;101092.42;105824;1256;69243;-71
2023/01/13 06:10:29;;;;;;;17.00;10.80;;;;;;;-4.79;74.72;101092.76;105912;1252;66524;-71
2023/01/13 06:12:56;;;;;;;17.90;10.90;;;;;;;-4.78;74.70;101094.81;105715;1253;60437;-71
2023/01/13 06:15:23;;;;;;;36.90;15.40;;;;;;;-4.76;74.69;101097.89;105729;1251;60499;-71
2023/01/13 06:17:50;;;;;;;58.30;20.60;;;;;;;-4.76;74.57;101099.78;105801;1251;67644;-72
2023/01/13 06:20:17;;;;;;;40.80;17.40;;;;;;;-4.76;74.70;101097.20;105856;1251;60792;-71
2023/01/13 06:22:46;;;;;;;43.00;18.30;;;;;;;-4.75;74.70;101102.70;105772;1252;65403;-71
2023/01/13 06:25:35;;;;;;;67.90;23.30;;;;;;;-4.74;74.48;101100.63;105913;1252;60543;-71
2023/01/13 06:28:03;;;;;;;54.40;21.10;;;;;;;-4.74;74.54;101099.25;106009;1251;60527;-71
2023/01/13 06:30:34;;;;;;;38.70;17.70;;;;;;;-4.75;74.55;101103.72;105979;1256;67315;-70
2023/01/13 06:33:02;;;;;;;53.40;21.90;;;;;;;-4.74;74.52;101105.61;105962;1255;60767;-70
2023/01/13 06:35:31;;;;;;;71.80;25.60;;;;;;;-4.74;74.57;101106.45;105808;1252;66825;-70
2023/01/13 06:37:58;;;;;;;67.70;23.90;;;;;;;-4.72;74.54;101106.64;105753;1257;60370;-70
2023/01/13 06:40:25;;;;;;;57.70;20.30;;;;;;;-4.71;74.62;101105.61;105921;1251;60437;-70
2023/01/13 06:45:50;;;;;;;29.40;15.80;;;;;;;-4.71;74.43;101104.77;105997;1251;60462;-70
2023/01/13 06:48:18;;;;;;;22.00;13.30;;;;;;;-4.70;74.48;101103.89;105916;1254;66312;-70
2023/01/13 06:50:45;;;;;;;43.50;18.00;;;;;;;-4.71;74.43;101107.33;105936;1251;60501;-70
2023/01/13 06:53:11;;;;;;;44.60;19.40;;;;;;;-4.71;74.40;101110.94;105981;1251;60789;-70
2023/01/13 06:55:38;;;;;;;32.60;18.10;;;;;;;-4.72;74.33;101110.42;105891;1256;67347;-71
2023/01/13 06:58:05;;;;;;;29.20;15.10;;;;;;;-4.73;74.28;101110.26;105975;1251;60884;-70
2023/01/13 07:08:13;;;;;;;34.70;16.30;;;;;;;-4.73;74.28;101116.25;102718;1293;601469;-70
2023/01/13 07:10:40;;;;;;;38.00;19.80;;;;;;;-4.73;74.30;101113.50;105037;1269;59145;-70
2023/01/13 07:15:57;;;;;;;37.30;18.00;;;;;;;-4.67;74.36;101113.99;105293;1264;65953;-70
2023/01/13 07:18:26;;;;;;;42.20;20.60;;;;;;;-4.63;74.31;101118.29;105684;1254;60704;-71
2023/01/13 07:21:00;;;;;;;46.60;21.20;;;;;;;-4.60;74.34;101117.23;105615;1255;145910;-70
2023/01/13 07:23:28;;;;;;;38.30;18.50;;;;;;;-4.58;74.32;101112.58;105743;1257;59269;-70
2023/01/13 07:25:56;;;;;;;40.30;19.20;;;;;;;-4.58;74.26;101110.52;105790;1256;59319;-70
2023/01/13 07:28:24;;;;;;;34.70;17.50;;;;;;;-4.59;74.25;101106.91;105884;1257;65993;-70
2023/01/13 07:30:50;;;;;;;25.30;15.70;;;;;;;-4.58;74.14;101115.51;105861;1257;61030;-70
2023/01/13 07:33:17;;;;;;;36.30;19.00;;;;;;;-4.58;74.10;101118.25;105871;1255;65249;-70
2023/01/13 07:35:46;;;;;;;66.80;28.00;;;;;;;-4.57;74.15;101113.09;105970;1257;59586;-69
2023/01/13 07:38:13;;;;;;;77.00;31.90;;;;;;;-4.56;74.15;101116.68;105668;1258;59733;-69
2023/01/13 07:40:39;;;;;;;116.10;41.20;;;;;;;-4.56;74.10;101118.75;105752;1257;66872;-70
2023/01/13 07:45:57;;;;;;;101.40;37.20;;;;;;;-4.60;74.11;101121.35;105640;1254;66177;-69
2023/01/13 07:48:25;;;;;;;101.30;37.30;;;;;;;-4.64;73.92;101124.98;105621;1257;59708;-70
2023/01/13 07:50:53;;;;;;;82.10;32.30;;;;;;;-4.66;74.09;101127.21;105686;1254;59561;-69
2023/01/13 07:53:21;;;;;;;103.90;39.50;;;;;;;-4.64;74.12;101127.56;105725;1255;66933;-69
2023/01/13 07:55:48;;;;;;;111.30;41.50;;;;;;;-4.62;74.07;101125.67;108215;1254;61148;-72
2023/01/13 07:58:15;;;;;;;105.30;37.90;;;;;;;-4.59;74.22;101124.79;108625;1255;65389;-70
2023/01/13 08:00:42;;;;;;;90.70;31.80;;;;;;;-4.56;74.13;101129.74;107020;1258;59733;-70
2023/01/13 08:03:09;;;;;;;131.50;38.10;;;;;;;-4.53;74.10;101129.40;105804;1259;59640;-70
2023/01/13 08:05:36;;;;;;;112.40;34.50;;;;;;;-4.52;74.07;101128.71;105819;1259;67000;-72
2023/01/13 08:08:03;;;;;;;85.70;28.10;;;;;;;-4.53;74.02;101130.42;105668;1254;59837;-70
2023/01/13 08:10:30;;;;;;;67.50;24.00;;;;;;;-4.54;74.03;101125.95;105638;1260;65646;-71
2023/01/13 08:15:43;;;;;;;40.50;18.30;;;;;;;-4.50;74.08;101124.05;105605;1267;59705;-70
2023/01/13 08:18:10;;;;;;;45.90;20.50;;;;;;;-4.50;74.02;101124.22;105497;1260;67035;-70
2023/01/13 08:20:37;;;;;;;54.10;23.60;;;;;;;-4.48;74.06;101120.25;105337;1261;60916;-70
2023/01/13 08:23:04;;;;;;;112.10;36.00;;;;;;;-4.46;74.07;101117.31;105475;1257;66403;-71
2023/01/13 08:25:33;;;;;;;129.10;39.60;;;;;;;-4.44;74.03;101109.06;105656;1258;59733;-70
2023/01/13 08:27:59;;;;;;;90.10;31.70;;;;;;;-4.42;74.07;101113.34;105645;1260;59514;-71
2023/01/13 08:30:27;;;;;;;102.30;37.00;;;;;;;-4.38;74.04;101117.95;105677;1259;66854;-69
2023/01/13 08:32:54;;;;;;;80.70;30.20;;;;;;;-4.36;73.98;101127.56;105718;1260;60632;-70
2023/01/13 08:35:21;;;;;;;130.80;43.00;;;;;;;-4.37;73.85;101126.70;105679;1260;66550;-69
2023/01/13 08:37:49;;;;;;;162.50;49.60;;;;;;;-4.36;73.90;101120.85;105482;1258;59823;-70
2023/01/13 08:40:16;;;;;;;193.50;55.10;;;;;;;-4.34;73.93;101115.52;105343;1255;59724;-69
2023/01/13 08:42:42;;;;;;;223.10;61.90;;;;;;;-4.31;73.90;101112.08;105519;1259;67022;-70
2023/01/13 08:45:10;;;;;;;218.10;59.30;;;;;;;-4.28;73.89;101106.02;105588;1254;61083;-70
2023/01/13 08:47:37;;;;;;;149.20;46.30;;;;;;;-4.24;73.84;101110.82;105571;1254;65430;-70
2023/01/13 08:50:04;;;;;;;151.30;46.10;;;;;;;-4.20;73.85;101110.95;105551;1259;59756;-70
2023/01/13 08:52:31;;;;;;;181.30;50.90;;;;;;;-4.16;73.80;101113.33;105605;1255;59673;-70
2023/01/13 08:54:58;;;;;;;146.90;42.40;;;;;;;-4.16;73.77;101112.80;105592;1260;66673;-70
2023/01/13 08:57:25;;;;;;;160.60;45.10;;;;;;;-4.15;73.68;101103.70;105478;1260;60617;-70
2023/01/13 08:59:52;;;;;;;209.50;53.90;;;;;;;-4.12;73.67;101092.15;105455;1255;66708;-70
2023/01/13 09:02:20;;;;;;;190.80;53.30;;;;;;;-4.10;73.63;101089.20;105612;1254;59688;-70
2023/01/13 09:04:47;;;;;;;148.40;44.80;;;;;;;-4.08;73.54;101084.38;105618;1260;59764;-70
2023/01/13 09:07:14;;;;;;;157.50;50.80;;;;;;;-4.09;73.41;101081.96;105711;1260;65744;-72
2023/01/13 09:09:41;;;;;;;195.00;52.50;;;;;;;-4.10;73.39;101078.37;105588;1260;60775;-70
2023/01/13 09:14:58;;;;;;;241.30;62.40;;;;;;;-4.04;73.43;101070.09;105564;1258;59646;-72
2023/01/13 09:17:26;;;;;;;261.50;65.10;;;;;;;-4.02;73.39;101064.05;105707;1259;59669;-73
2023/01/13 09:19:53;;;;;;;250.90;65.00;;;;;;;-4.07;73.13;101062.00;105747;1258;66639;-71
2023/01/13 09:22:20;;;;;;;214.70;54.60;;;;;;;-4.12;73.11;101068.42;105733;1260;59837;-70
2023/01/13 09:24:47;;;;;;;143.30;40.50;;;;;;;-4.12;73.23;101068.42;105507;1259;66704;-70
2023/01/13 09:27:14;;;;;;;103.60;32.70;;;;;;;-4.10;73.26;101063.75;105618;1256;65030;-71
2023/01/13 09:29:41;;;;;;;54.70;19.80;;;;;;;-4.05;73.33;101056.83;105624;1254;59648;-71
2023/01/13 09:32:12;;;;;;;33.80;16.10;;;;;;;-3.99;73.33;101053.16;105603;1260;66698;-70
2023/01/13 09:37:35;;;;;;;85.00;27.70;;;;;;;-3.86;73.26;101052.71;105649;1260;66288;-71
2023/01/13 09:40:18;;;;;;;157.10;47.70;;;;;;;-3.83;73.18;101052.34;105658;1260;59730;-71
2023/01/13 09:46:01;;;;;;;106.90;34.90;;;;;;;-3.77;73.10;101047.62;105628;1254;65657;-71
2023/01/13 09:48:32;;;;;;;255.90;69.10;;;;;;;-3.73;73.03;101047.77;105473;1260;60961;-71
2023/01/13 09:51:03;;;;;;;274.70;70.80;;;;;;;-3.72;72.87;101047.23;105416;1260;66409;-71
2023/01/13 09:53:42;;;;;;;230.40;60.20;;;;;;;-3.72;72.75;101046.71;105552;1254;59739;-71
2023/01/13 09:56:09;;;;;;;275.60;74.50;;;;;;;-3.72;72.66;101045.52;105684;1260;59746;-71
2023/01/13 09:58:36;;;;;;;233.30;70.90;;;;;;;-3.72;72.71;101040.86;105633;1255;66802;-71
2023/01/13 10:01:24;;;;;;;154.60;55.00;;;;;;;-3.70;72.63;101037.91;105642;1259;60976;-71
2023/01/13 10:03:51;;;;;;;130.60;48.80;;;;;;;-3.71;72.46;101035.86;105663;1254;65522;-71
2023/01/13 10:06:21;;;;;;;128.80;46.80;;;;;;;-3.73;72.41;101030.20;105735;1259;59663;-71
2023/01/13 10:08:48;;;;;;;99.50;39.80;;;;;;;-3.73;72.44;101036.41;105703;1254;59732;-71
2023/01/13 10:14:15;;;;;;;46.50;23.00;;;;;;;-3.67;72.41;101038.40;105519;1264;59865;-71
2023/01/13 10:16:45;;;;;;;80.80;35.90;;;;;;;-3.61;72.50;101037.83;105489;1255;66368;-71
2023/01/13 10:19:17;;;;;;;120.00;43.00;;;;;;;-3.54;72.43;101039.30;105698;1268;59788;-70
2023/01/13 10:22:18;;;;;;;169.10;56.20;;;;;;;-3.49;72.40;101037.85;105532;1254;59768;-72
2023/01/13 10:25:03;;;;;;;119.60;47.10;;;;;;;-3.47;72.23;101038.88;105671;1255;66563;-71
2023/01/13 10:27:50;;;;;;;82.80;36.30;;;;;;;-3.45;72.18;101037.14;105658;1260;60695;-71
2023/01/13 10:30:20;;;;;;;85.60;34.90;;;;;;;-3.41;72.15;101035.54;105538;1256;66369;-70
2023/01/13 10:33:09;;;;;;;127.30;46.20;;;;;;;-3.37;72.12;101034.98;105655;1260;59767;-70
2023/01/13 10:35:50;;;;;;;132.20;46.70;;;;;;;-3.34;72.00;101032.36;105625;1257;59675;-75
2023/01/13 10:38:24;;;;;;;125.50;46.40;;;;;;;-3.32;71.93;101025.77;105496;1260;66598;-70
2023/01/13 10:40:53;;;;;;;109.70;41.90;;;;;;;-3.30;71.84;101027.80;105659;1254;61130;-70
2023/01/13 10:43:20;;;;;;;181.00;69.50;;;;;;;-3.28;71.70;101028.31;105689;1267;65630;-69
2023/01/13 10:46:11;;;;;;;186.40;76.80;;;;;;;-3.31;71.59;101025.06;105624;1259;64001;-70
2023/01/13 10:48:43;;;;;;;158.50;69.60;;;;;;;-3.33;71.54;101024.08;105625;1256;59647;-69
2023/01/13 10:51:23;;;;;;;144.40;62.90;;;;;;;-3.35;71.45;101018.93;105391;1254;67045;-70
2023/01/13 10:53:58;;;;;;;123.10;57.60;;;;;;;-3.32;71.44;101018.20;105656;1258;60962;-70
2023/01/13 10:56:33;;;;;;;78.30;46.20;;;;;;;-3.28;71.41;101015.41;105508;1260;65509;-70
2023/01/13 10:59:18;;;;;;;70.00;45.00;;;;;;;-3.24;71.38;101011.56;105545;1254;59761;-71
2023/01/13 11:01:54;;;;;;;67.90;40.50;;;;;;;-3.20;71.31;101013.73;105694;1255;59784;-71
2023/01/13 11:04:29;;;;;;;89.60;46.30;;;;;;;-3.16;71.28;101009.05;105678;1255;67611;-70
2023/01/13 11:06:56;;;;;;;92.40;51.20;;;;;;;-3.13;71.25;101008.66;105686;1260;61046;-71
2023/01/13 11:09:24;;;;;;;80.20;45.60;;;;;;;-3.06;71.25;101008.91;105620;1260;66345;-71
2023/01/13 11:11:54;;;;;;;62.50;37.60;;;;;;;-2.97;71.22;101009.48;105599;1260;59765;-71
2023/01/13 11:17:40;;;;;;;57.90;32.40;;;;;;;-2.88;70.89;100999.36;105447;1256;67051;-71
2023/01/13 11:20:11;;;;;;;71.90;39.40;;;;;;;-2.86;70.71;100994.86;105645;1260;60995;-70
2023/01/13 11:22:54;;;;;;;101.50;46.10;;;;;;;-2.81;70.73;100997.71;105658;1254;66107;-70
2023/01/13 11:25:22;;;;;;;91.70;43.60;;;;;;;-2.79;70.54;100993.03;105667;1260;60561;-70
2023/01/13 11:28:28;;;;;;;125.00;51.70;;;;;;;-2.78;70.41;100994.56;105635;1254;60463;-70
2023/01/13 11:31:24;;;;;;;157.40;57.10;;;;;;;-2.79;70.13;100994.23;105532;1260;67730;-70
2023/01/13 11:34:10;;;;;;;153.10;63.90;;;;;;;-2.83;69.97;100994.81;105433;1260;60517;-70
2023/01/13 11:36:45;;;;;;;121.20;57.50;;;;;;;-2.83;69.95;100998.77;105593;1260;66506;-70
2023/01/13 11:39:24;;;;;;;100.00;54.10;;;;;;;-2.82;69.88;101001.16;105589;1257;60647;-70
2023/01/13 11:42:20;;;;;;;86.90;49.80;;;;;;;-2.80;69.92;101003.55;105656;1254;60615;-70
2023/01/13 11:45:02;;;;;;;95.80;49.00;;;;;;;-2.72;69.96;101004.81;105694;1259;66890;-70
2023/01/13 11:47:29;;;;;;;79.70;44.10;;;;;;;-2.66;69.90;101002.47;105538;1254;60856;-71
2023/01/13 11:49:55;;;;;;;81.90;41.30;;;;;;;-2.58;69.95;101000.64;105708;1255;66763;-71
2023/01/13 11:52:46;;;;;;;70.80;36.80;;;;;;;-2.51;69.84;100996.05;105623;1260;60559;-74
2023/01/13 11:55:23;;;;;;;57.40;31.30;;;;;;;-2.45;69.70;100994.73;106131;1260;60524;-69
2023/01/13 11:58:11;;;;;;;66.50;34.30;;;;;;;-2.41;69.55;100996.05;107385;1254;67900;-70
2023/01/13 12:00:46;;;;;;;48.80;27.70;;;;;;;-2.37;69.53;101000.14;106053;1255;60564;-70
2023/01/13 12:03:31;;;;;;;41.10;25.90;;;;;;;-2.37;69.31;101001.16;105628;1256;66262;-74
2023/01/13 12:06:17;;;;;;;43.30;26.30;;;;;;;-2.37;69.19;100998.40;105707;1257;60553;-70
2023/01/13 12:08:59;;;;;;;41.50;26.20;;;;;;;-2.35;69.16;100995.95;105534;1261;60457;-71
2023/01/13 12:12:18;;;;;;;45.40;25.80;;;;;;;-2.35;69.02;100991.11;105591;1257;67895;-71
2023/01/13 12:14:38;;;;;;;91.10;42.70;;;;;;;-2.35;68.89;100992.31;105536;1254;60643;-71
2023/01/13 12:17:08;;;;;;;97.60;41.90;;;;;;;-2.35;68.87;100999.05;105656;1259;66289;-71